sensor_id;sensor_type;location;lat;lon;timestamp;pressure;altitude;pressure_sealevel;temperature;humidity
68656;BME280;55638;51.122;13.606;2023-09-18T00:00:34;99859.13;;;17.91;47.54
68656;BME280;55638;51.122;13.606;2023-09-18T00:02:07;99856.38;;;17.91;47.62
68656;BME280;55638;51.122;13.606;2023-09-18T00:03:39;99851.94;;;17.90;47.45
68656;BME280;55638;51.122;13.606;2023-09-18T00:05:11;99851.94;;;17.90;47.46
68656;BME280;55638;51.122;13.606;2023-09-18T00:06:42;99854.66;;;17.90;47.51
68656;BME280;55638;51.122;13.606;2023-09-18T00:08:16;99844.97;;;17.87;48.18
68656;BME280;55638;51.122;13.606;2023-09-18T00:09:48;99844.97;;;17.87;48.24
68656;BME280;55638;51.122;13.606;2023-09-18T00:11:20;99838.88;;;17.85;47.79
68656;BME280;55638;51.122;13.606;2023-09-18T00:12:52;99836.16;;;17.85;47.87
68656;BME280;55638;51.122;13.606;2023-09-18T00:14:24;99839.88;;;17.84;47.95
68656;BME280;55638;51.122;13.606;2023-09-18T00:15:57;99838.41;;;17.82;48.14
68656;BME280;55638;51.122;13.606;2023-09-18T00:17:31;99836.69;;;17.81;48.19
68656;BME280;55638;51.122;13.606;2023-09-18T00:19:03;99838.56;;;17.80;48.37
68656;BME280;55638;51.122;13.606;2023-09-18T00:20:35;99840.94;;;17.83;48.14
68656;BME280;55638;51.122;13.606;2023-09-18T00:22:07;99838.41;;;17.82;48.26
68656;BME280;55638;51.122;13.606;2023-09-18T00:23:39;99833.13;;;17.80;48.66
68656;BME280;55638;51.122;13.606;2023-09-18T00:25:11;99829.38;;;17.81;48.54
68656;BME280;55638;51.122;13.606;2023-09-18T00:26:43;99836.69;;;17.81;48.50
68656;BME280;55638;51.122;13.606;2023-09-18T00:28:15;99832.09;;;17.81;48.44
68656;BME280;55638;51.122;13.606;2023-09-18T00:29:47;99827.66;;;17.80;48.46
68656;BME280;55638;51.122;13.606;2023-09-18T00:31:19;99829.38;;;17.81;48.51
68656;BME280;55638;51.122;13.606;2023-09-18T00:32:51;99823.94;;;17.81;48.36
68656;BME280;55638;51.122;13.606;2023-09-18T00:34:23;99822.22;;;17.80;48.78
68656;BME280;55638;51.122;13.606;2023-09-18T00:35:55;99827.66;;;17.80;48.62
68656;BME280;55638;51.122;13.606;2023-09-18T00:37:28;99823.25;;;17.79;48.84
68656;BME280;55638;51.122;13.606;2023-09-18T00:39:00;99824.28;;;17.78;48.96
68656;BME280;55638;51.122;13.606;2023-09-18T00:40:32;99825.31;;;17.77;48.74
68656;BME280;55638;51.122;13.606;2023-09-18T00:42:04;99821.94;;;17.75;48.99
68656;BME280;55638;51.122;13.606;2023-09-18T00:43:36;99821.75;;;17.77;48.99
68656;BME280;55638;51.122;13.606;2023-09-18T00:45:08;99817.50;;;17.74;48.71
68656;BME280;55638;51.122;13.606;2023-09-18T00:46:41;99818.72;;;17.72;49.11
68656;BME280;55638;51.122;13.606;2023-09-18T00:48:14;99815.13;;;17.71;49.27
68656;BME280;55638;51.122;13.606;2023-09-18T00:49:48;99816.19;;;17.70;49.47
68656;BME280;55638;51.122;13.606;2023-09-18T00:51:21;99817.22;;;17.69;49.66
68656;BME280;55638;51.122;13.606;2023-09-18T00:52:53;99816.19;;;17.70;49.46
68656;BME280;55638;51.122;13.606;2023-09-18T00:54:25;99816.19;;;17.70;49.06
68656;BME280;55638;51.122;13.606;2023-09-18T00:56:00;99819.94;;;17.69;49.77
68656;BME280;55638;51.122;13.606;2023-09-18T00:57:32;99804.59;;;17.68;49.24
68656;BME280;55638;51.122;13.606;2023-09-18T00:59:04;99808.84;;;17.71;49.35
68656;BME280;55638;51.122;13.606;2023-09-18T01:00:36;99798.97;;;17.70;49.18
68656;BME280;55638;51.122;13.606;2023-09-18T01:02:09;99809.22;;;17.68;49.49
68656;BME280;55638;51.122;13.606;2023-09-18T01:03:41;99803.75;;;17.68;49.53
68656;BME280;55638;51.122;13.606;2023-09-18T01:05:13;99802.91;;;17.67;49.47
68656;BME280;55638;51.122;13.606;2023-09-18T01:06:48;99805.63;;;17.67;49.75
68656;BME280;55638;51.122;13.606;2023-09-18T01:08:20;99803.13;;;17.66;49.94
68656;BME280;55638;51.122;13.606;2023-09-18T01:09:52;99792.84;;;17.68;49.72
68656;BME280;55638;51.122;13.606;2023-09-18T01:11:40;99789.28;;;17.67;50.26
68656;BME280;55638;51.122;13.606;2023-09-18T01:13:20;99787.22;;;17.69;49.99
68656;BME280;55638;51.122;13.606;2023-09-18T01:15:12;99780.75;;;17.70;49.63
68656;BME280;55638;51.122;13.606;2023-09-18T01:17:00;99784.88;;;17.66;51.80
68656;BME280;55638;51.122;13.606;2023-09-18T01:18:36;99779.06;;;17.69;50.33
68656;BME280;55638;51.122;13.606;2023-09-18T01:20:11;99779.06;;;17.69;50.28
68656;BME280;55638;51.122;13.606;2023-09-18T01:21:45;99771.72;;;17.70;50.05
68656;BME280;55638;51.122;13.606;2023-09-18T01:23:17;99778.03;;;17.70;50.10
68656;BME280;55638;51.122;13.606;2023-09-18T01:24:49;99772.56;;;17.70;50.14
68656;BME280;55638;51.122;13.606;2023-09-18T01:26:21;99766.06;;;17.71;50.00
68656;BME280;55638;51.122;13.606;2023-09-18T01:27:53;99767.97;;;17.71;49.87
68656;BME280;55638;51.122;13.606;2023-09-18T01:29:24;99760.81;;;17.70;50.07
68656;BME280;55638;51.122;13.606;2023-09-18T01:30:56;99763.34;;;17.71;49.95
68656;BME280;55638;51.122;13.606;2023-09-18T01:32:30;99765.44;;;17.69;50.05
68656;BME280;55638;51.122;13.606;2023-09-18T01:34:03;99758.63;;;17.65;50.42
68656;BME280;55638;51.122;13.606;2023-09-18T01:35:36;99758.63;;;17.65;50.29
68656;BME280;55638;51.122;13.606;2023-09-18T01:37:09;99763.25;;;17.64;50.42
68656;BME280;55638;51.122;13.606;2023-09-18T01:38:42;99756.31;;;17.62;50.46
68656;BME280;55638;51.122;13.606;2023-09-18T01:40:17;99748.28;;;17.60;50.63
68656;BME280;55638;51.122;13.606;2023-09-18T01:41:49;99745.94;;;17.57;50.72
68656;BME280;55638;51.122;13.606;2023-09-18T01:43:21;99738.81;;;17.56;50.20
68656;BME280;55638;51.122;13.606;2023-09-18T01:44:54;99748.00;;;17.55;50.78
68656;BME280;55638;51.122;13.606;2023-09-18T01:46:26;99746.31;;;17.54;50.73
68656;BME280;55638;51.122;13.606;2023-09-18T01:47:59;99743.94;;;17.51;50.77
68656;BME280;55638;51.122;13.606;2023-09-18T01:49:35;99746.03;;;17.49;51.58
68656;BME280;55638;51.122;13.606;2023-09-18T01:51:08;99742.44;;;17.49;51.18
68656;BME280;55638;51.122;13.606;2023-09-18T01:52:40;99741.59;;;17.48;50.91
68656;BME280;55638;51.122;13.606;2023-09-18T01:54:12;99738.22;;;17.46;51.08
68656;BME280;55638;51.122;13.606;2023-09-18T01:55:44;99734.66;;;17.46;51.07
68656;BME280;55638;51.122;13.606;2023-09-18T01:57:16;99738.22;;;17.46;51.16
68656;BME280;55638;51.122;13.606;2023-09-18T01:58:49;99736.50;;;17.45;50.77
68656;BME280;55638;51.122;13.606;2023-09-18T02:00:22;99736.50;;;17.45;50.94
68656;BME280;55638;51.122;13.606;2023-09-18T02:01:54;99740.28;;;17.44;51.00
68656;BME280;55638;51.122;13.606;2023-09-18T02:03:27;99731.44;;;17.42;50.76
68656;BME280;55638;51.122;13.606;2023-09-18T02:05:19;99745.25;;;17.40;50.86
68656;BME280;55638;51.122;13.606;2023-09-18T02:06:51;99733.03;;;17.36;51.34
68656;BME280;55638;51.122;13.606;2023-09-18T02:08:23;99741.38;;;17.35;51.58
68656;BME280;55638;51.122;13.606;2023-09-18T02:09:55;99737.13;;;17.32;51.44
68656;BME280;55638;51.122;13.606;2023-09-18T02:11:27;99734.59;;;17.31;51.87
68656;BME280;55638;51.122;13.606;2023-09-18T02:13:00;99730.19;;;17.30;51.57
68656;BME280;55638;51.122;13.606;2023-09-18T02:14:32;99733.75;;;17.30;51.26
68656;BME280;55638;51.122;13.606;2023-09-18T02:16:05;99731.19;;;17.29;51.61
68656;BME280;55638;51.122;13.606;2023-09-18T02:17:37;99726.78;;;17.28;51.88
68656;BME280;55638;51.122;13.606;2023-09-18T02:19:10;99728.69;;;17.27;51.54
68656;BME280;55638;51.122;13.606;2023-09-18T02:20:42;99724.91;;;17.28;51.66
68656;BME280;55638;51.122;13.606;2023-09-18T02:22:19;99718.16;;;17.24;52.09
68656;BME280;55638;51.122;13.606;2023-09-18T02:23:51;99718.16;;;17.24;51.85
68656;BME280;55638;51.122;13.606;2023-09-18T02:25:24;99708.94;;;17.25;51.89
68656;BME280;55638;51.122;13.606;2023-09-18T02:26:56;99711.03;;;17.23;51.65
68656;BME280;55638;51.122;13.606;2023-09-18T02:28:29;99709.31;;;17.22;51.83
68656;BME280;55638;51.122;13.606;2023-09-18T02:30:03;99701.50;;;17.19;52.09
68656;BME280;55638;51.122;13.606;2023-09-18T02:31:35;99704.41;;;17.17;52.20
68656;BME280;55638;51.122;13.606;2023-09-18T02:33:07;99705.25;;;17.18;52.14
68656;BME280;55638;51.122;13.606;2023-09-18T02:34:39;99701.69;;;17.17;52.19
68656;BME280;55638;51.122;13.606;2023-09-18T02:36:11;99699.13;;;17.16;52.43
68656;BME280;55638;51.122;13.606;2023-09-18T02:37:43;99693.69;;;17.16;52.59
68656;BME280;55638;51.122;13.606;2023-09-18T02:39:15;99705.59;;;17.15;52.30
68656;BME280;55638;51.122;13.606;2023-09-18T02:40:46;99695.75;;;17.14;52.48
68656;BME280;55638;51.122;13.606;2023-09-18T02:42:18;99691.31;;;17.13;52.80
68656;BME280;55638;51.122;13.606;2023-09-18T02:43:50;99689.63;;;17.12;52.40
68656;BME280;55638;51.122;13.606;2023-09-18T02:45:22;99688.56;;;17.13;52.87
68656;BME280;55638;51.122;13.606;2023-09-18T02:46:54;99687.72;;;17.12;52.48
68656;BME280;55638;51.122;13.606;2023-09-18T02:48:26;99690.28;;;17.14;52.53
68656;BME280;55638;51.122;13.606;2023-09-18T02:49:58;99683.13;;;17.13;52.41
68656;BME280;55638;51.122;13.606;2023-09-18T02:51:30;99686.91;;;17.12;52.72
68656;BME280;55638;51.122;13.606;2023-09-18T02:53:06;99686.91;;;17.12;52.73
68656;BME280;55638;51.122;13.606;2023-09-18T02:54:40;99684.38;;;17.10;52.61
68656;BME280;55638;51.122;13.606;2023-09-18T02:56:12;99685.22;;;17.11;52.49
68656;BME280;55638;51.122;13.606;2023-09-18T02:57:45;99681.66;;;17.10;52.50
68656;BME280;55638;51.122;13.606;2023-09-18T02:59:17;99682.00;;;17.07;52.70
68656;BME280;55638;51.122;13.606;2023-09-18T03:00:50;99694.78;;;17.07;52.71
68656;BME280;55638;51.122;13.606;2023-09-18T03:02:22;99689.34;;;17.07;52.68
68656;BME280;55638;51.122;13.606;2023-09-18T03:03:54;99695.78;;;17.06;52.67
68656;BME280;55638;51.122;13.606;2023-09-18T03:05:26;99693.25;;;17.04;52.81
68656;BME280;55638;51.122;13.606;2023-09-18T03:06:58;99696.34;;;17.01;52.81
68656;BME280;55638;51.122;13.606;2023-09-18T03:08:31;99699.91;;;17.02;52.77
68656;BME280;55638;51.122;13.606;2023-09-18T03:10:04;99700.94;;;17.01;52.92
68656;BME280;55638;51.122;13.606;2023-09-18T03:11:37;99704.03;;;16.98;52.72
68656;BME280;55638;51.122;13.606;2023-09-18T03:13:11;99699.59;;;16.97;52.79
68656;BME280;55638;51.122;13.606;2023-09-18T03:14:43;99704.41;;;16.94;52.95
68656;BME280;55638;51.122;13.606;2023-09-18T03:16:15;99699.13;;;16.93;52.83
68656;BME280;55638;51.122;13.606;2023-09-18T03:17:50;99700.34;;;16.90;53.13
68656;BME280;55638;51.122;13.606;2023-09-18T03:19:22;99700.53;;;16.89;53.01
68656;BME280;55638;51.122;13.606;2023-09-18T03:20:56;99699.00;;;16.86;53.04
68656;BME280;55638;51.122;13.606;2023-09-18T03:22:28;99695.63;;;16.84;53.18
68656;BME280;55638;51.122;13.606;2023-09-18T03:24:00;99691.19;;;16.83;53.25
68656;BME280;55638;51.122;13.606;2023-09-18T03:25:33;99686.78;;;16.82;53.18
68656;BME280;55638;51.122;13.606;2023-09-18T03:27:22;99680.50;;;16.82;52.96
68656;BME280;55638;51.122;13.606;2023-09-18T03:29:01;99682.75;;;16.78;53.15
68656;BME280;55638;51.122;13.606;2023-09-18T03:30:33;99672.03;;;16.77;53.37
68656;BME280;55638;51.122;13.606;2023-09-18T03:32:06;99680.53;;;16.74;53.56
68656;BME280;55638;51.122;13.606;2023-09-18T03:33:38;99667.13;;;16.72;53.54
68656;BME280;55638;51.122;13.606;2023-09-18T03:35:10;99661.69;;;16.72;53.31
68656;BME280;55638;51.122;13.606;2023-09-18T03:36:52;99655.09;;;16.66;53.75
68656;BME280;55638;51.122;13.606;2023-09-18T03:38:24;99654.94;;;16.68;53.75
68656;BME280;55638;51.122;13.606;2023-09-18T03:39:57;99653.22;;;16.67;53.60
68656;BME280;55638;51.122;13.606;2023-09-18T03:41:29;99656.28;;;16.64;53.71
68656;BME280;55638;51.122;13.606;2023-09-18T03:43:06;99654.59;;;16.63;54.15
68656;BME280;55638;51.122;13.606;2023-09-18T03:44:39;99652.94;;;16.62;53.83
68656;BME280;55638;51.122;13.606;2023-09-18T03:46:11;99653.09;;;16.60;54.36
68656;BME280;55638;51.122;13.606;2023-09-18T03:47:48;99652.44;;;16.58;54.06
68656;BME280;55638;51.122;13.606;2023-09-18T03:49:22;99652.44;;;16.58;54.39
68656;BME280;55638;51.122;13.606;2023-09-18T03:50:56;99649.88;;;16.57;54.43
68656;BME280;55638;51.122;13.606;2023-09-18T03:52:28;99649.25;;;16.55;54.49
68656;BME280;55638;51.122;13.606;2023-09-18T03:53:59;99651.97;;;16.55;54.75
68656;BME280;55638;51.122;13.606;2023-09-18T03:55:31;99652.59;;;16.57;54.64
68656;BME280;55638;51.122;13.606;2023-09-18T03:57:04;99653.66;;;16.56;54.56
68656;BME280;55638;51.122;13.606;2023-09-18T03:58:36;99649.88;;;16.57;54.35
68656;BME280;55638;51.122;13.606;2023-09-18T04:00:08;99649.88;;;16.57;54.25
68656;BME280;55638;51.122;13.606;2023-09-18T04:01:44;99653.66;;;16.56;54.27
68656;BME280;55638;51.122;13.606;2023-09-18T04:03:17;99643.59;;;16.56;54.45
68656;BME280;55638;51.122;13.606;2023-09-18T04:04:49;99645.47;;;16.56;54.14
68656;BME280;55638;51.122;13.606;2023-09-18T04:06:21;99636.47;;;16.55;54.15
68656;BME280;55638;51.122;13.606;2023-09-18T04:07:55;99634.59;;;16.56;54.16
68656;BME280;55638;51.122;13.606;2023-09-18T04:09:27;99640.19;;;16.54;54.10
68656;BME280;55638;51.122;13.606;2023-09-18T04:10:59;99640.41;;;16.53;54.40
68656;BME280;55638;51.122;13.606;2023-09-18T04:12:31;99634.13;;;16.52;54.35
68656;BME280;55638;51.122;13.606;2023-09-18T04:14:03;99630.72;;;16.50;54.58
68656;BME280;55638;51.122;13.606;2023-09-18T04:15:35;99627.16;;;16.50;54.30
68656;BME280;55638;51.122;13.606;2023-09-18T04:17:09;99621.72;;;16.50;54.11
68656;BME280;55638;51.122;13.606;2023-09-18T04:18:42;99627.31;;;16.48;54.65
68656;BME280;55638;51.122;13.606;2023-09-18T04:20:14;99623.94;;;16.46;54.75
68656;BME280;55638;51.122;13.606;2023-09-18T04:21:47;99623.13;;;16.45;54.42
68656;BME280;55638;51.122;13.606;2023-09-18T04:23:24;99619.56;;;16.45;54.88
68656;BME280;55638;51.122;13.606;2023-09-18T04:24:57;99622.44;;;16.43;54.81
68656;BME280;55638;51.122;13.606;2023-09-18T04:26:29;99616.31;;;16.41;54.86
68656;BME280;55638;51.122;13.606;2023-09-18T04:28:05;99617.19;;;16.42;54.92
68656;BME280;55638;51.122;13.606;2023-09-18T04:29:37;99618.19;;;16.41;55.20
68656;BME280;55638;51.122;13.606;2023-09-18T04:31:10;99611.91;;;16.40;54.92
68656;BME280;55638;51.122;13.606;2023-09-18T04:32:42;99606.47;;;16.40;55.04
68656;BME280;55638;51.122;13.606;2023-09-18T04:34:14;99610.22;;;16.39;55.26
68656;BME280;55638;51.122;13.606;2023-09-18T04:35:47;99600.19;;;16.40;54.87
68656;BME280;55638;51.122;13.606;2023-09-18T04:37:19;99606.00;;;16.37;54.77
68656;BME280;55638;51.122;13.606;2023-09-18T04:38:51;99605.78;;;16.38;55.17
68656;BME280;55638;51.122;13.606;2023-09-18T04:40:23;99596.16;;;16.36;55.30
68656;BME280;55638;51.122;13.606;2023-09-18T04:41:55;99593.44;;;16.36;55.50
68656;BME280;55638;51.122;13.606;2023-09-18T04:43:27;99592.59;;;16.35;55.23
68656;BME280;55638;51.122;13.606;2023-09-18T04:45:02;99600.75;;;16.35;55.37
68656;BME280;55638;51.122;13.606;2023-09-18T04:46:34;99597.00;;;16.36;55.03
68656;BME280;55638;51.122;13.606;2023-09-18T04:48:07;99599.72;;;16.36;55.19
68656;BME280;55638;51.122;13.606;2023-09-18T04:49:40;99592.59;;;16.35;55.59
68656;BME280;55638;51.122;13.606;2023-09-18T04:51:12;99601.59;;;16.36;55.53
68656;BME280;55638;51.122;13.606;2023-09-18T04:52:44;99594.25;;;16.36;55.40
68656;BME280;55638;51.122;13.606;2023-09-18T04:54:18;99587.16;;;16.35;55.51
68656;BME280;55638;51.122;13.606;2023-09-18T04:55:50;99582.53;;;16.36;55.50
68656;BME280;55638;51.122;13.606;2023-09-18T04:57:22;99589.47;;;16.38;55.49
68656;BME280;55638;51.122;13.606;2023-09-18T04:58:54;99587.63;;;16.39;55.66
68656;BME280;55638;51.122;13.606;2023-09-18T05:00:26;99588.28;;;16.41;55.69
68656;BME280;55638;51.122;13.606;2023-09-18T05:02:02;99589.13;;;16.41;55.44
68656;BME280;55638;51.122;13.606;2023-09-18T05:03:35;99582.00;;;16.40;55.77
68656;BME280;55638;51.122;13.606;2023-09-18T05:05:07;99585.19;;;16.44;55.90
68656;BME280;55638;51.122;13.606;2023-09-18T05:06:42;99581.47;;;16.45;55.42
68656;BME280;55638;51.122;13.606;2023-09-18T05:08:14;99582.47;;;16.44;55.67
68656;BME280;55638;51.122;13.606;2023-09-18T05:09:47;99588.41;;;16.47;55.71
68656;BME280;55638;51.122;13.606;2023-09-18T05:11:19;99578.88;;;16.52;56.09
68656;BME280;55638;51.122;13.606;2023-09-18T05:12:51;99578.66;;;16.53;56.03
68656;BME280;55638;51.122;13.606;2023-09-18T05:14:30;99580.34;;;16.54;55.91
68656;BME280;55638;51.122;13.606;2023-09-18T05:16:03;99573.72;;;16.57;55.87
68656;BME280;55638;51.122;13.606;2023-09-18T05:19:14;99570.94;;;16.65;55.84
68656;BME280;55638;51.122;13.606;2023-09-18T05:20:46;99563.41;;;16.67;56.00
68656;BME280;55638;51.122;13.606;2023-09-18T05:22:18;99566.44;;;16.72;55.87
68656;BME280;55638;51.122;13.606;2023-09-18T05:23:50;99564.19;;;16.76;55.72
68656;BME280;55638;51.122;13.606;2023-09-18T05:25:24;99572.00;;;16.79;55.94
68656;BME280;55638;51.122;13.606;2023-09-18T05:26:59;99569.94;;;16.81;55.62
68656;BME280;55638;51.122;13.606;2023-09-18T05:28:31;99576.88;;;16.83;55.90
68656;BME280;55638;51.122;13.606;2023-09-18T05:30:03;99570.91;;;16.88;55.70
68656;BME280;55638;51.122;13.606;2023-09-18T05:31:37;99564.63;;;16.87;55.70
68656;BME280;55638;51.122;13.606;2023-09-18T05:33:09;99570.53;;;16.91;55.91
68656;BME280;55638;51.122;13.606;2023-09-18T05:34:41;99566.41;;;16.95;55.38
68656;BME280;55638;51.122;13.606;2023-09-18T05:36:13;99563.47;;;16.97;55.59
68656;BME280;55638;51.122;13.606;2023-09-18T05:37:46;99567.53;;;17.01;55.36
68656;BME280;55638;51.122;13.606;2023-09-18T05:39:18;99559.00;;;17.04;55.43
68656;BME280;55638;51.122;13.606;2023-09-18T05:40:50;99567.81;;;17.06;55.28
68656;BME280;55638;51.122;13.606;2023-09-18T05:42:22;99565.75;;;17.08;55.60
68656;BME280;55638;51.122;13.606;2023-09-18T05:43:57;99571.69;;;17.11;56.13
68656;BME280;55638;51.122;13.606;2023-09-18T05:45:28;99564.69;;;17.17;55.15
68656;BME280;55638;51.122;13.606;2023-09-18T05:47:02;99562.81;;;17.17;55.52
68656;BME280;55638;51.122;13.606;2023-09-18T05:48:35;99567.69;;;17.22;55.38
68656;BME280;55638;51.122;13.606;2023-09-18T05:50:09;99558.28;;;17.25;55.29
68656;BME280;55638;51.122;13.606;2023-09-18T05:51:41;99565.25;;;17.27;55.34
68656;BME280;55638;51.122;13.606;2023-09-18T05:53:13;99560.28;;;17.31;55.19
68656;BME280;55638;51.122;13.606;2023-09-18T05:54:45;99552.56;;;17.34;55.30
68656;BME280;55638;51.122;13.606;2023-09-18T05:56:17;99545.06;;;17.36;54.90
68656;BME280;55638;51.122;13.606;2023-09-18T05:57:49;99540.25;;;17.38;55.26
68656;BME280;55638;51.122;13.606;2023-09-18T05:59:21;99546.16;;;17.42;55.30
68656;BME280;55638;51.122;13.606;2023-09-18T06:00:53;99537.81;;;17.44;54.88
68656;BME280;55638;51.122;13.606;2023-09-18T06:02:25;99534.50;;;17.48;55.03
68656;BME280;55638;51.122;13.606;2023-09-18T06:03:58;99539.59;;;17.51;55.10
68656;BME280;55638;51.122;13.606;2023-09-18T06:05:30;99529.81;;;17.57;54.73
68656;BME280;55638;51.122;13.606;2023-09-18T06:07:04;99525.03;;;17.59;54.68
68656;BME280;55638;51.122;13.606;2023-09-18T06:08:35;99527.38;;;17.62;54.99
68656;BME280;55638;51.122;13.606;2023-09-18T06:10:08;99521.94;;;17.62;54.81
68656;BME280;55638;51.122;13.606;2023-09-18T06:11:40;99520.13;;;17.69;54.46
68656;BME280;55638;51.122;13.606;2023-09-18T06:13:12;99522.19;;;17.67;54.73
68656;BME280;55638;51.122;13.606;2023-09-18T06:14:44;99510.06;;;17.70;54.84
68656;BME280;55638;51.122;13.606;2023-09-18T06:16:18;99506.97;;;17.73;54.74
68656;BME280;55638;51.122;13.606;2023-09-18T06:17:50;99506.38;;;17.77;54.70
68656;BME280;55638;51.122;13.606;2023-09-18T06:19:22;99508.53;;;17.82;54.77
68656;BME280;55638;51.122;13.606;2023-09-18T06:20:54;99506.28;;;17.85;54.46
68656;BME280;55638;51.122;13.606;2023-09-18T06:22:26;99499.38;;;17.90;54.12
68656;BME280;55638;51.122;13.606;2023-09-18T06:23:58;99506.16;;;17.94;54.44
68656;BME280;55638;51.122;13.606;2023-09-18T06:25:30;99504.09;;;17.96;54.56
68656;BME280;55638;51.122;13.606;2023-09-18T06:27:03;99503.50;;;18.00;54.29
68656;BME280;55638;51.122;13.606;2023-09-18T06:28:38;99505.84;;;18.03;54.54
68656;BME280;55638;51.122;13.606;2023-09-18T06:30:10;99512.22;;;18.10;54.14
68656;BME280;55638;51.122;13.606;2023-09-18T06:31:42;99506.00;;;18.17;53.84
68656;BME280;55638;51.122;13.606;2023-09-18T06:33:14;99505.81;;;18.18;54.31
68656;BME280;55638;51.122;13.606;2023-09-18T06:34:47;99507.31;;;18.21;54.05
68656;BME280;55638;51.122;13.606;2023-09-18T06:36:19;99494.75;;;18.26;54.25
68656;BME280;55638;51.122;13.606;2023-09-18T06:37:51;99497.75;;;18.31;54.06
68656;BME280;55638;51.122;13.606;2023-09-18T06:39:23;99483.50;;;18.36;54.04
68656;BME280;55638;51.122;13.606;2023-09-18T06:40:56;99474.53;;;18.42;53.78
68656;BME280;55638;51.122;13.606;2023-09-18T06:42:28;99483.00;;;18.47;53.51
68656;BME280;55638;51.122;13.606;2023-09-18T06:44:03;99487.44;;;18.55;53.32
68656;BME280;55638;51.122;13.606;2023-09-18T06:45:35;99474.91;;;18.61;53.58
68656;BME280;55638;51.122;13.606;2023-09-18T06:47:09;99482.13;;;18.68;53.43
68656;BME280;55638;51.122;13.606;2023-09-18T06:48:41;99479.84;;;18.72;53.11
68656;BME280;55638;51.122;13.606;2023-09-18T06:50:17;99474.63;;;18.77;53.28
68656;BME280;55638;51.122;13.606;2023-09-18T06:51:50;99466.94;;;18.87;52.86
68656;BME280;55638;51.122;13.606;2023-09-18T06:53:22;99468.88;;;18.93;52.84
68656;BME280;55638;51.122;13.606;2023-09-18T06:54:54;99461.78;;;18.99;52.80
68656;BME280;55638;51.122;13.606;2023-09-18T06:56:26;99458.41;;;19.03;52.55
68656;BME280;55638;51.122;13.606;2023-09-18T06:57:58;99457.84;;;19.08;52.59
68656;BME280;55638;51.122;13.606;2023-09-18T06:59:30;99460.59;;;19.15;52.48
68656;BME280;55638;51.122;13.606;2023-09-18T07:01:02;99455.34;;;19.20;52.25
68656;BME280;55638;51.122;13.606;2023-09-18T07:02:38;99455.19;;;19.28;52.15
68656;BME280;55638;51.122;13.606;2023-09-18T07:04:11;99456.66;;;19.31;52.36
68656;BME280;55638;51.122;13.606;2023-09-18T07:05:43;99461.97;;;19.39;52.06
68656;BME280;55638;51.122;13.606;2023-09-18T07:07:15;99445.41;;;19.47;52.18
68656;BME280;55638;51.122;13.606;2023-09-18T07:08:47;99449.63;;;19.49;51.53
68656;BME280;55638;51.122;13.606;2023-09-18T07:10:23;99447.75;;;19.57;51.46
68656;BME280;55638;51.122;13.606;2023-09-18T07:11:55;99442.31;;;19.63;51.68
68656;BME280;55638;51.122;13.606;2023-09-18T07:13:27;99442.78;;;19.67;51.62
68656;BME280;55638;51.122;13.606;2023-09-18T07:15:01;99447.81;;;19.70;51.25
68656;BME280;55638;51.122;13.606;2023-09-18T07:16:35;99447.63;;;19.78;51.40
68656;BME280;55638;51.122;13.606;2023-09-18T07:18:07;99443.41;;;19.82;51.42
68656;BME280;55638;51.122;13.606;2023-09-18T07:19:39;99451.00;;;19.87;51.03
68656;BME280;55638;51.122;13.606;2023-09-18T07:21:11;99437.34;;;19.93;51.47
68656;BME280;55638;51.122;13.606;2023-09-18T07:22:45;99441.78;;;20.01;50.91
68656;BME280;55638;51.122;13.606;2023-09-18T07:24:18;99437.97;;;20.02;50.68
68656;BME280;55638;51.122;13.606;2023-09-18T07:25:52;99435.47;;;20.07;50.48
68656;BME280;55638;51.122;13.606;2023-09-18T07:27:24;99429.19;;;20.13;50.43
68656;BME280;55638;51.122;13.606;2023-09-18T07:28:56;99431.09;;;20.20;50.68
68656;BME280;55638;51.122;13.606;2023-09-18T07:30:31;99424.78;;;20.26;50.47
68656;BME280;55638;51.122;13.606;2023-09-18T07:32:06;99426.28;;;20.35;50.54
68656;BME280;55638;51.122;13.606;2023-09-18T07:33:38;99427.94;;;20.36;50.07
68656;BME280;55638;51.122;13.606;2023-09-18T07:35:11;99430.69;;;20.42;50.35
68656;BME280;55638;51.122;13.606;2023-09-18T07:36:43;99418.88;;;20.49;49.98
68656;BME280;55638;51.122;13.606;2023-09-18T07:38:16;99429.19;;;20.53;49.76
68656;BME280;55638;51.122;13.606;2023-09-18T07:39:50;99424.53;;;20.60;49.70
68656;BME280;55638;51.122;13.606;2023-09-18T07:41:22;99422.03;;;20.65;49.66
68656;BME280;55638;51.122;13.606;2023-09-18T07:42:54;99417.16;;;20.74;49.83
68656;BME280;55638;51.122;13.606;2023-09-18T07:44:26;99408.31;;;20.79;49.27
68656;BME280;55638;51.122;13.606;2023-09-18T07:45:58;99407.91;;;20.82;49.30
68656;BME280;55638;51.122;13.606;2023-09-18T07:47:31;99406.41;;;20.93;49.35
68656;BME280;55638;51.122;13.606;2023-09-18T07:49:03;99398.16;;;20.99;49.02
68656;BME280;55638;51.122;13.606;2023-09-18T07:50:35;99402.56;;;21.07;49.29
68656;BME280;55638;51.122;13.606;2023-09-18T07:52:07;99389.03;;;21.12;48.67
68656;BME280;55638;51.122;13.606;2023-09-18T07:53:39;99397.03;;;21.20;48.31
68656;BME280;55638;51.122;13.606;2023-09-18T07:55:11;99405.22;;;21.27;48.63
68656;BME280;55638;51.122;13.606;2023-09-18T07:56:43;99389.59;;;21.34;48.12
68656;BME280;55638;51.122;13.606;2023-09-18T07:58:15;99393.34;;;21.46;48.35
68656;BME280;55638;51.122;13.606;2023-09-18T07:59:47;99392.50;;;21.52;48.06
68656;BME280;55638;51.122;13.606;2023-09-18T08:01:19;99396.63;;;21.62;48.07
68656;BME280;55638;51.122;13.606;2023-09-18T08:02:55;99399.56;;;21.67;47.56
68656;BME280;55638;51.122;13.606;2023-09-18T08:04:32;99392.38;;;21.72;47.34
68656;BME280;55638;51.122;13.606;2023-09-18T08:06:04;99398.19;;;21.83;47.24
68656;BME280;55638;51.122;13.606;2023-09-18T08:07:37;99393.06;;;21.93;47.59